Terminal Aerodrome Forecast
Issued by NWS

Home | Current Version | Previous Version | Graphics & Text | Print | Product List | Glossary On
Versions: 1 2 3 4 5 6 7 8 9 10 11 12 13 14 15 16 17 18 19 20 21 22 23
763
FTUS43 KUNR 212320
TAFGCC
TAF
KGCC 212320Z 2200/2224 15015G25KT P6SM OVC019
     FM220400 16020G30KT P6SM BKN070
     FM221100 17024G34KT P6SM SCT100
     FM221400 19016G26KT P6SM SCT200
     FM221700 33010KT P6SM SCT250
     FM222300 01009KT P6SM SCT150=

USA.gov is the U.S. government's official web portal to all federal, state and local government web resources and services.